sensor_id;sensor_type;location;lat;lon;timestamp;P1;durP1;ratioP1;P2;durP2;ratioP2
11943;SDS011;6031;50.220;10.122;2022-09-13T00:00:39;5.57;;;5.07;;
11943;SDS011;6031;50.220;10.122;2022-09-13T00:03:06;8.93;;;5.10;;
11943;SDS011;6031;50.220;10.122;2022-09-13T00:05:33;5.23;;;4.73;;
11943;SDS011;6031;50.220;10.122;2022-09-13T00:07:59;5.60;;;5.10;;
11943;SDS011;6031;50.220;10.122;2022-09-13T00:10:25;5.23;;;4.77;;
11943;SDS011;6031;50.220;10.122;2022-09-13T00:12:51;5.80;;;5.10;;
11943;SDS011;6031;50.220;10.122;2022-09-13T00:15:17;5.57;;;4.53;;
11943;SDS011;6031;50.220;10.122;2022-09-13T00:17:43;5.80;;;5.30;;
11943;SDS011;6031;50.220;10.122;2022-09-13T00:20:09;5.30;;;4.80;;
11943;SDS011;6031;50.220;10.122;2022-09-13T00:22:35;5.07;;;4.67;;
11943;SDS011;6031;50.220;10.122;2022-09-13T00:25:01;6.00;;;5.50;;
11943;SDS011;6031;50.220;10.122;2022-09-13T00:27:27;6.07;;;5.43;;
11943;SDS011;6031;50.220;10.122;2022-09-13T00:29:53;7.20;;;5.50;;
11943;SDS011;6031;50.220;10.122;2022-09-13T00:32:18;7.13;;;6.20;;
11943;SDS011;6031;50.220;10.122;2022-09-13T00:34:44;5.43;;;4.80;;
11943;SDS011;6031;50.220;10.122;2022-09-13T00:37:09;6.63;;;5.00;;
11943;SDS011;6031;50.220;10.122;2022-09-13T00:39:35;5.90;;;5.23;;
11943;SDS011;6031;50.220;10.122;2022-09-13T00:42:00;6.00;;;5.23;;
11943;SDS011;6031;50.220;10.122;2022-09-13T00:47:14;5.80;;;5.13;;
11943;SDS011;6031;50.220;10.122;2022-09-13T00:49:46;7.47;;;5.00;;
11943;SDS011;6031;50.220;10.122;2022-09-13T00:52:15;5.30;;;4.80;;
11943;SDS011;6031;50.220;10.122;2022-09-13T00:54:45;5.60;;;5.10;;
11943;SDS011;6031;50.220;10.122;2022-09-13T00:57:26;7.20;;;5.17;;
11943;SDS011;6031;50.220;10.122;2022-09-13T00:59:58;5.60;;;5.10;;
11943;SDS011;6031;50.220;10.122;2022-09-13T01:03:00;6.10;;;5.50;;
11943;SDS011;6031;50.220;10.122;2022-09-13T01:05:31;5.87;;;5.27;;
11943;SDS011;6031;50.220;10.122;2022-09-13T01:08:02;5.73;;;5.00;;
11943;SDS011;6031;50.220;10.122;2022-09-13T01:10:34;5.90;;;5.30;;
11943;SDS011;6031;50.220;10.122;2022-09-13T01:13:13;5.70;;;5.20;;
11943;SDS011;6031;50.220;10.122;2022-09-13T01:15:42;6.87;;;5.83;;
11943;SDS011;6031;50.220;10.122;2022-09-13T01:18:09;5.60;;;5.10;;
11943;SDS011;6031;50.220;10.122;2022-09-13T01:34:58;6.77;;;5.47;;
11943;SDS011;6031;50.220;10.122;2022-09-13T01:37:56;6.23;;;5.63;;
11943;SDS011;6031;50.220;10.122;2022-09-13T01:40:50;5.73;;;4.73;;
11943;SDS011;6031;50.220;10.122;2022-09-13T01:43:26;6.03;;;5.13;;
11943;SDS011;6031;50.220;10.122;2022-09-13T01:46:05;6.17;;;5.50;;
11943;SDS011;6031;50.220;10.122;2022-09-13T01:49:23;7.17;;;5.17;;
11943;SDS011;6031;50.220;10.122;2022-09-13T01:51:27;6.23;;;5.60;;
11943;SDS011;6031;50.220;10.122;2022-09-13T01:56:53;6.63;;;5.70;;
11943;SDS011;6031;50.220;10.122;2022-09-13T01:59:48;6.17;;;5.57;;
11943;SDS011;6031;50.220;10.122;2022-09-13T02:02:25;6.03;;;5.43;;
11943;SDS011;6031;50.220;10.122;2022-09-13T02:04:54;7.07;;;5.77;;
11943;SDS011;6031;50.220;10.122;2022-09-13T02:07:43;6.27;;;5.57;;
11943;SDS011;6031;50.220;10.122;2022-09-13T02:10:17;5.63;;;5.13;;
11943;SDS011;6031;50.220;10.122;2022-09-13T02:12:49;7.60;;;5.90;;
11943;SDS011;6031;50.220;10.122;2022-09-13T02:15:16;6.57;;;5.57;;
11943;SDS011;6031;50.220;10.122;2022-09-13T02:17:48;6.53;;;5.90;;
11943;SDS011;6031;50.220;10.122;2022-09-13T02:20:23;5.97;;;5.30;;
11943;SDS011;6031;50.220;10.122;2022-09-13T02:22:55;5.17;;;4.57;;
11943;SDS011;6031;50.220;10.122;2022-09-13T02:25:24;7.07;;;5.77;;
11943;SDS011;6031;50.220;10.122;2022-09-13T02:27:53;7.00;;;5.10;;
11943;SDS011;6031;50.220;10.122;2022-09-13T02:30:23;5.60;;;5.00;;
11943;SDS011;6031;50.220;10.122;2022-09-13T02:32:55;6.50;;;5.90;;
11943;SDS011;6031;50.220;10.122;2022-09-13T02:35:35;6.27;;;5.20;;
11943;SDS011;6031;50.220;10.122;2022-09-13T02:38:09;6.03;;;5.37;;
11943;SDS011;6031;50.220;10.122;2022-09-13T02:40:41;7.87;;;5.90;;
11943;SDS011;6031;50.220;10.122;2022-09-13T02:43:13;8.30;;;5.80;;
11943;SDS011;6031;50.220;10.122;2022-09-13T02:45:50;5.13;;;4.73;;
11943;SDS011;6031;50.220;10.122;2022-09-13T02:48:28;8.53;;;5.57;;
11943;SDS011;6031;50.220;10.122;2022-09-13T02:51:24;7.43;;;5.90;;
11943;SDS011;6031;50.220;10.122;2022-09-13T02:54:29;11.03;;;6.10;;
11943;SDS011;6031;50.220;10.122;2022-09-13T02:56:59;7.30;;;6.00;;
11943;SDS011;6031;50.220;10.122;2022-09-13T02:59:30;6.50;;;5.60;;
11943;SDS011;6031;50.220;10.122;2022-09-13T03:01:58;7.33;;;5.70;;
11943;SDS011;6031;50.220;10.122;2022-09-13T03:04:26;7.87;;;6.90;;
11943;SDS011;6031;50.220;10.122;2022-09-13T03:06:52;6.47;;;5.80;;
11943;SDS011;6031;50.220;10.122;2022-09-13T03:09:18;9.00;;;5.93;;
11943;SDS011;6031;50.220;10.122;2022-09-13T03:11:49;7.13;;;6.40;;
11943;SDS011;6031;50.220;10.122;2022-09-13T03:17:00;6.60;;;6.00;;
11943;SDS011;6031;50.220;10.122;2022-09-13T03:20:03;7.13;;;5.40;;
11943;SDS011;6031;50.220;10.122;2022-09-13T03:25:36;6.30;;;5.63;;
11943;SDS011;6031;50.220;10.122;2022-09-13T03:28:12;6.47;;;5.87;;
11943;SDS011;6031;50.220;10.122;2022-09-13T03:30:49;6.20;;;5.30;;
11943;SDS011;6031;50.220;10.122;2022-09-13T03:33:22;6.07;;;5.13;;
11943;SDS011;6031;50.220;10.122;2022-09-13T03:36:25;7.97;;;5.63;;
11943;SDS011;6031;50.220;10.122;2022-09-13T03:39:08;8.23;;;5.20;;
11943;SDS011;6031;50.220;10.122;2022-09-13T03:41:56;7.77;;;6.10;;
11943;SDS011;6031;50.220;10.122;2022-09-13T03:44:26;5.63;;;5.03;;
11943;SDS011;6031;50.220;10.122;2022-09-13T03:46:54;7.73;;;5.20;;
11943;SDS011;6031;50.220;10.122;2022-09-13T03:49:23;6.47;;;5.33;;
11943;SDS011;6031;50.220;10.122;2022-09-13T03:51:51;6.83;;;5.80;;
11943;SDS011;6031;50.220;10.122;2022-09-13T03:54:23;6.47;;;5.87;;
11943;SDS011;6031;50.220;10.122;2022-09-13T03:57:09;6.33;;;5.67;;
11943;SDS011;6031;50.220;10.122;2022-09-13T03:59:35;6.80;;;6.10;;
11943;SDS011;6031;50.220;10.122;2022-09-13T04:02:03;7.73;;;5.63;;
11943;SDS011;6031;50.220;10.122;2022-09-13T04:04:30;6.23;;;5.63;;
11943;SDS011;6031;50.220;10.122;2022-09-13T04:06:57;7.60;;;6.23;;
11943;SDS011;6031;50.220;10.122;2022-09-13T04:09:28;7.20;;;6.30;;
11943;SDS011;6031;50.220;10.122;2022-09-13T04:11:54;8.23;;;5.77;;
11943;SDS011;6031;50.220;10.122;2022-09-13T04:14:20;5.77;;;5.13;;
11943;SDS011;6031;50.220;10.122;2022-09-13T04:16:46;6.80;;;6.10;;
11943;SDS011;6031;50.220;10.122;2022-09-13T04:19:12;8.47;;;5.67;;
11943;SDS011;6031;50.220;10.122;2022-09-13T04:21:38;6.77;;;6.03;;
11943;SDS011;6031;50.220;10.122;2022-09-13T04:24:03;7.73;;;6.43;;
11943;SDS011;6031;50.220;10.122;2022-09-13T04:26:29;6.80;;;6.10;;
11943;SDS011;6031;50.220;10.122;2022-09-13T04:28:55;8.27;;;6.60;;
11943;SDS011;6031;50.220;10.122;2022-09-13T04:31:20;10.37;;;7.67;;
11943;SDS011;6031;50.220;10.122;2022-09-13T04:33:46;8.03;;;6.73;;
11943;SDS011;6031;50.220;10.122;2022-09-13T04:36:13;7.27;;;5.77;;
11943;SDS011;6031;50.220;10.122;2022-09-13T04:38:40;8.63;;;6.30;;
11943;SDS011;6031;50.220;10.122;2022-09-13T04:41:06;7.83;;;6.33;;
11943;SDS011;6031;50.220;10.122;2022-09-13T04:43:33;8.70;;;6.07;;
11943;SDS011;6031;50.220;10.122;2022-09-13T04:45:58;8.00;;;6.77;;
11943;SDS011;6031;50.220;10.122;2022-09-13T04:48:25;9.27;;;6.40;;
11943;SDS011;6031;50.220;10.122;2022-09-13T04:50:50;6.97;;;6.23;;
11943;SDS011;6031;50.220;10.122;2022-09-13T04:53:16;7.60;;;6.27;;
11943;SDS011;6031;50.220;10.122;2022-09-13T04:55:42;7.63;;;6.40;;
11943;SDS011;6031;50.220;10.122;2022-09-13T04:58:08;8.77;;;5.93;;
11943;SDS011;6031;50.220;10.122;2022-09-13T05:00:34;8.00;;;5.83;;
11943;SDS011;6031;50.220;10.122;2022-09-13T05:03:00;7.83;;;6.00;;
11943;SDS011;6031;50.220;10.122;2022-09-13T05:05:26;8.17;;;5.73;;
11943;SDS011;6031;50.220;10.122;2022-09-13T05:07:52;9.10;;;5.80;;
11943;SDS011;6031;50.220;10.122;2022-09-13T05:10:18;6.80;;;5.47;;
11943;SDS011;6031;50.220;10.122;2022-09-13T05:12:44;7.87;;;5.30;;
11943;SDS011;6031;50.220;10.122;2022-09-13T05:15:10;7.07;;;6.13;;
11943;SDS011;6031;50.220;10.122;2022-09-13T05:17:36;7.27;;;6.23;;
11943;SDS011;6031;50.220;10.122;2022-09-13T05:20:02;6.50;;;5.20;;
11943;SDS011;6031;50.220;10.122;2022-09-13T05:22:29;10.10;;;6.00;;
11943;SDS011;6031;50.220;10.122;2022-09-13T05:24:55;8.27;;;5.70;;
11943;SDS011;6031;50.220;10.122;2022-09-13T05:27:21;6.33;;;5.40;;
11943;SDS011;6031;50.220;10.122;2022-09-13T05:29:46;7.17;;;5.90;;
11943;SDS011;6031;50.220;10.122;2022-09-13T05:32:12;9.07;;;6.07;;
11943;SDS011;6031;50.220;10.122;2022-09-13T05:34:37;7.80;;;6.13;;
11943;SDS011;6031;50.220;10.122;2022-09-13T05:37:03;8.87;;;5.90;;
11943;SDS011;6031;50.220;10.122;2022-09-13T05:39:28;7.33;;;5.83;;
11943;SDS011;6031;50.220;10.122;2022-09-13T05:41:54;6.47;;;5.83;;
11943;SDS011;6031;50.220;10.122;2022-09-13T05:44:20;6.60;;;5.90;;
11943;SDS011;6031;50.220;10.122;2022-09-13T05:46:46;7.23;;;5.67;;
11943;SDS011;6031;50.220;10.122;2022-09-13T05:49:12;8.17;;;6.07;;
11943;SDS011;6031;50.220;10.122;2022-09-13T05:51:38;9.33;;;6.00;;
11943;SDS011;6031;50.220;10.122;2022-09-13T05:54:03;7.03;;;5.80;;
11943;SDS011;6031;50.220;10.122;2022-09-13T05:56:29;9.27;;;6.13;;
11943;SDS011;6031;50.220;10.122;2022-09-13T05:58:56;11.50;;;7.50;;
11943;SDS011;6031;50.220;10.122;2022-09-13T06:01:23;8.10;;;6.33;;
11943;SDS011;6031;50.220;10.122;2022-09-13T06:03:50;7.67;;;5.77;;
11943;SDS011;6031;50.220;10.122;2022-09-13T06:06:17;8.83;;;5.80;;
11943;SDS011;6031;50.220;10.122;2022-09-13T06:08:44;6.73;;;5.70;;
11943;SDS011;6031;50.220;10.122;2022-09-13T06:11:10;7.83;;;6.30;;
11943;SDS011;6031;50.220;10.122;2022-09-13T06:13:37;12.77;;;6.50;;
11943;SDS011;6031;50.220;10.122;2022-09-13T06:16:04;7.03;;;6.10;;
11943;SDS011;6031;50.220;10.122;2022-09-13T06:18:31;10.07;;;7.87;;
11943;SDS011;6031;50.220;10.122;2022-09-13T06:20:58;8.67;;;6.07;;
11943;SDS011;6031;50.220;10.122;2022-09-13T06:23:28;7.10;;;5.77;;
11943;SDS011;6031;50.220;10.122;2022-09-13T06:25:58;6.33;;;5.73;;
11943;SDS011;6031;50.220;10.122;2022-09-13T06:28:34;7.30;;;6.43;;
11943;SDS011;6031;50.220;10.122;2022-09-13T06:31:01;6.87;;;5.80;;
11943;SDS011;6031;50.220;10.122;2022-09-13T06:33:31;8.43;;;5.83;;
11943;SDS011;6031;50.220;10.122;2022-09-13T06:36:00;7.83;;;6.30;;
11943;SDS011;6031;50.220;10.122;2022-09-13T06:38:27;7.70;;;6.03;;
11943;SDS011;6031;50.220;10.122;2022-09-13T06:41:02;8.17;;;6.57;;
11943;SDS011;6031;50.220;10.122;2022-09-13T06:43:28;8.23;;;6.30;;
11943;SDS011;6031;50.220;10.122;2022-09-13T06:45:57;7.17;;;6.47;;
11943;SDS011;6031;50.220;10.122;2022-09-13T06:48:24;7.17;;;6.33;;
11943;SDS011;6031;50.220;10.122;2022-09-13T06:50:49;6.70;;;6.00;;
11943;SDS011;6031;50.220;10.122;2022-09-13T06:53:15;7.10;;;6.40;;
11943;SDS011;6031;50.220;10.122;2022-09-13T06:55:41;7.40;;;6.70;;
11943;SDS011;6031;50.220;10.122;2022-09-13T06:58:06;7.13;;;6.07;;
11943;SDS011;6031;50.220;10.122;2022-09-13T07:00:32;6.03;;;5.30;;
11943;SDS011;6031;50.220;10.122;2022-09-13T07:02:57;7.93;;;6.13;;
11943;SDS011;6031;50.220;10.122;2022-09-13T07:05:22;8.23;;;6.53;;
11943;SDS011;6031;50.220;10.122;2022-09-13T07:07:48;7.17;;;5.93;;
11943;SDS011;6031;50.220;10.122;2022-09-13T07:10:14;6.77;;;5.57;;
11943;SDS011;6031;50.220;10.122;2022-09-13T07:12:40;6.47;;;5.47;;
11943;SDS011;6031;50.220;10.122;2022-09-13T07:15:06;8.10;;;5.77;;
11943;SDS011;6031;50.220;10.122;2022-09-13T07:17:32;5.97;;;5.37;;
11943;SDS011;6031;50.220;10.122;2022-09-13T07:19:58;5.17;;;4.57;;
11943;SDS011;6031;50.220;10.122;2022-09-13T07:22:23;5.57;;;4.73;;
11943;SDS011;6031;50.220;10.122;2022-09-13T07:24:51;5.90;;;5.40;;
11943;SDS011;6031;50.220;10.122;2022-09-13T07:27:17;8.23;;;6.60;;
11943;SDS011;6031;50.220;10.122;2022-09-13T07:29:43;8.20;;;5.80;;
11943;SDS011;6031;50.220;10.122;2022-09-13T07:32:08;7.27;;;5.63;;
11943;SDS011;6031;50.220;10.122;2022-09-13T07:34:34;7.33;;;5.93;;
11943;SDS011;6031;50.220;10.122;2022-09-13T07:36:59;7.47;;;6.77;;
11943;SDS011;6031;50.220;10.122;2022-09-13T07:39:26;8.10;;;6.83;;
11943;SDS011;6031;50.220;10.122;2022-09-13T07:41:51;7.77;;;6.33;;
11943;SDS011;6031;50.220;10.122;2022-09-13T07:44:17;8.27;;;6.67;;
11943;SDS011;6031;50.220;10.122;2022-09-13T07:46:43;6.33;;;5.67;;
11943;SDS011;6031;50.220;10.122;2022-09-13T07:49:13;9.63;;;6.87;;
11943;SDS011;6031;50.220;10.122;2022-09-13T07:51:41;6.87;;;6.03;;
11943;SDS011;6031;50.220;10.122;2022-09-13T07:54:12;8.83;;;5.90;;
11943;SDS011;6031;50.220;10.122;2022-09-13T07:56:40;6.83;;;6.13;;
11943;SDS011;6031;50.220;10.122;2022-09-13T07:59:06;7.50;;;6.27;;
11943;SDS011;6031;50.220;10.122;2022-09-13T08:01:37;6.53;;;5.93;;
11943;SDS011;6031;50.220;10.122;2022-09-13T08:04:07;6.50;;;5.90;;
11943;SDS011;6031;50.220;10.122;2022-09-13T08:06:38;6.43;;;5.83;;
11943;SDS011;6031;50.220;10.122;2022-09-13T08:09:05;8.90;;;5.80;;
11943;SDS011;6031;50.220;10.122;2022-09-13T08:14:05;6.90;;;6.20;;
11943;SDS011;6031;50.220;10.122;2022-09-13T08:16:33;7.23;;;6.40;;
11943;SDS011;6031;50.220;10.122;2022-09-13T08:19:00;6.57;;;5.90;;
11943;SDS011;6031;50.220;10.122;2022-09-13T08:21:30;7.03;;;6.33;;
11943;SDS011;6031;50.220;10.122;2022-09-13T08:23:58;8.03;;;6.57;;
11943;SDS011;6031;50.220;10.122;2022-09-13T08:26:25;7.00;;;6.30;;
11943;SDS011;6031;50.220;10.122;2022-09-13T08:28:58;7.33;;;6.33;;
11943;SDS011;6031;50.220;10.122;2022-09-13T08:31:25;7.93;;;6.80;;
11943;SDS011;6031;50.220;10.122;2022-09-13T08:33:51;7.50;;;6.60;;
11943;SDS011;6031;50.220;10.122;2022-09-13T08:36:17;8.90;;;6.53;;
11943;SDS011;6031;50.220;10.122;2022-09-13T08:38:47;9.00;;;7.10;;
11943;SDS011;6031;50.220;10.122;2022-09-13T08:43:50;7.70;;;6.87;;
11943;SDS011;6031;50.220;10.122;2022-09-13T08:49:06;8.60;;;6.90;;
11943;SDS011;6031;50.220;10.122;2022-09-13T08:51:38;6.60;;;5.97;;
11943;SDS011;6031;50.220;10.122;2022-09-13T08:54:16;6.73;;;6.13;;
11943;SDS011;6031;50.220;10.122;2022-09-13T08:59:27;7.70;;;6.90;;
11943;SDS011;6031;50.220;10.122;2022-09-13T09:02:16;7.47;;;6.40;;
11943;SDS011;6031;50.220;10.122;2022-09-13T09:07:25;8.23;;;6.43;;
11943;SDS011;6031;50.220;10.122;2022-09-13T09:09:54;7.20;;;6.60;;
11943;SDS011;6031;50.220;10.122;2022-09-13T09:15:21;7.23;;;6.10;;
11943;SDS011;6031;50.220;10.122;2022-09-13T09:20:30;8.83;;;6.17;;
11943;SDS011;6031;50.220;10.122;2022-09-13T09:23:02;6.37;;;5.70;;
11943;SDS011;6031;50.220;10.122;2022-09-13T09:25:32;7.57;;;6.57;;
11943;SDS011;6031;50.220;10.122;2022-09-13T09:27:58;6.37;;;5.70;;
11943;SDS011;6031;50.220;10.122;2022-09-13T09:30:28;7.10;;;5.93;;
11943;SDS011;6031;50.220;10.122;2022-09-13T09:33:51;6.37;;;5.77;;
11943;SDS011;6031;50.220;10.122;2022-09-13T09:36:11;9.17;;;6.50;;
11943;SDS011;6031;50.220;10.122;2022-09-13T09:38:39;6.77;;;6.00;;
11943;SDS011;6031;50.220;10.122;2022-09-13T09:41:14;6.63;;;5.93;;
11943;SDS011;6031;50.220;10.122;2022-09-13T09:43:52;7.70;;;6.90;;
11943;SDS011;6031;50.220;10.122;2022-09-13T09:46:21;6.57;;;5.97;;
11943;SDS011;6031;50.220;10.122;2022-09-13T09:48:53;8.70;;;6.53;;
11943;SDS011;6031;50.220;10.122;2022-09-13T09:51:23;5.97;;;5.37;;
11943;SDS011;6031;50.220;10.122;2022-09-13T09:53:53;7.07;;;5.20;;
11943;SDS011;6031;50.220;10.122;2022-09-13T09:56:30;7.27;;;5.47;;
11943;SDS011;6031;50.220;10.122;2022-09-13T09:58:58;6.03;;;5.30;;
11943;SDS011;6031;50.220;10.122;2022-09-13T10:03:51;7.30;;;6.37;;
11943;SDS011;6031;50.220;10.122;2022-09-13T10:06:27;6.17;;;5.57;;
11943;SDS011;6031;50.220;10.122;2022-09-13T10:11:39;9.43;;;6.00;;
11943;SDS011;6031;50.220;10.122;2022-09-13T10:17:25;5.47;;;5.03;;
11943;SDS011;6031;50.220;10.122;2022-09-13T10:20:38;6.53;;;5.20;;
11943;SDS011;6031;50.220;10.122;2022-09-13T10:22:38;5.53;;;5.03;;
11943;SDS011;6031;50.220;10.122;2022-09-13T10:25:20;5.70;;;5.20;;
11943;SDS011;6031;50.220;10.122;2022-09-13T10:27:48;6.17;;;5.07;;
11943;SDS011;6031;50.220;10.122;2022-09-13T10:33:05;5.63;;;5.10;;
11943;SDS011;6031;50.220;10.122;2022-09-13T10:35:58;6.63;;;5.20;;
11943;SDS011;6031;50.220;10.122;2022-09-13T10:40:55;5.47;;;4.63;;
11943;SDS011;6031;50.220;10.122;2022-09-13T10:43:22;5.40;;;4.87;;
11943;SDS011;6031;50.220;10.122;2022-09-13T10:45:51;6.17;;;5.47;;
11943;SDS011;6031;50.220;10.122;2022-09-13T10:48:17;6.43;;;4.70;;
11943;SDS011;6031;50.220;10.122;2022-09-13T10:51:03;5.97;;;4.20;;
11943;SDS011;6031;50.220;10.122;2022-09-13T10:54:14;5.17;;;4.60;;
11943;SDS011;6031;50.220;10.122;2022-09-13T10:56:46;4.13;;;3.83;;
11943;SDS011;6031;50.220;10.122;2022-09-13T11:04:41;4.90;;;4.27;;
11943;SDS011;6031;50.220;10.122;2022-09-13T11:07:33;5.00;;;4.50;;
11943;SDS011;6031;50.220;10.122;2022-09-13T11:18:00;5.97;;;4.30;;
11943;SDS011;6031;50.220;10.122;2022-09-13T11:23:25;5.23;;;4.73;;
11943;SDS011;6031;50.220;10.122;2022-09-13T11:26:26;6.15;;;5.00;;
11943;SDS011;6031;50.220;10.122;2022-09-13T11:31:51;5.70;;;5.20;;
11943;SDS011;6031;50.220;10.122;2022-09-13T11:34:35;6.70;;;5.27;;
11943;SDS011;6031;50.220;10.122;2022-09-13T11:37:59;4.77;;;4.17;;
11943;SDS011;6031;50.220;10.122;2022-09-13T11:42:45;4.90;;;4.50;;
11943;SDS011;6031;50.220;10.122;2022-09-13T11:45:26;6.63;;;4.25;;
11943;SDS011;6031;50.220;10.122;2022-09-13T11:51:18;4.65;;;4.25;;
11943;SDS011;6031;50.220;10.122;2022-09-13T11:56:40;4.50;;;4.10;;
11943;SDS011;6031;50.220;10.122;2022-09-13T11:59:19;4.47;;;4.07;;
11943;SDS011;6031;50.220;10.122;2022-09-13T12:01:59;6.35;;;3.80;;
11943;SDS011;6031;50.220;10.122;2022-09-13T12:04:34;6.15;;;4.47;;
11943;SDS011;6031;50.220;10.122;2022-09-13T12:07:15;3.80;;;3.50;;
11943;SDS011;6031;50.220;10.122;2022-09-13T12:09:54;5.03;;;3.67;;
11943;SDS011;6031;50.220;10.122;2022-09-13T12:12:30;3.85;;;3.55;;
11943;SDS011;6031;50.220;10.122;2022-09-13T12:14:59;4.13;;;3.83;;
11943;SDS011;6031;50.220;10.122;2022-09-13T12:20:04;3.78;;;3.40;;
11943;SDS011;6031;50.220;10.122;2022-09-13T12:22:37;6.80;;;3.60;;
11943;SDS011;6031;50.220;10.122;2022-09-13T12:25:06;3.78;;;3.40;;
11943;SDS011;6031;50.220;10.122;2022-09-13T12:27:50;3.97;;;3.47;;
11943;SDS011;6031;50.220;10.122;2022-09-13T12:30:27;5.60;;;3.85;;
11943;SDS011;6031;50.220;10.122;2022-09-13T12:33:04;3.60;;;3.30;;
11943;SDS011;6031;50.220;10.122;2022-09-13T12:35:31;3.45;;;3.10;;
11943;SDS011;6031;50.220;10.122;2022-09-13T12:43:58;3.50;;;2.88;;
11943;SDS011;6031;50.220;10.122;2022-09-13T12:46:58;3.85;;;3.55;;
11943;SDS011;6031;50.220;10.122;2022-09-13T12:49:44;5.13;;;3.40;;
11943;SDS011;6031;50.220;10.122;2022-09-13T12:52:27;5.05;;;3.42;;
11943;SDS011;6031;50.220;10.122;2022-09-13T13:00:21;7.45;;;3.00;;
11943;SDS011;6031;50.220;10.122;2022-09-13T13:07:57;5.78;;;3.20;;
11943;SDS011;6031;50.220;10.122;2022-09-13T13:10:27;3.92;;;2.83;;
11943;SDS011;6031;50.220;10.122;2022-09-13T13:13:07;4.07;;;2.72;;
11943;SDS011;6031;50.220;10.122;2022-09-13T13:18:22;3.10;;;2.38;;
11943;SDS011;6031;50.220;10.122;2022-09-13T13:33:50;2.00;;;1.90;;
11943;SDS011;6031;50.220;10.122;2022-09-13T13:36:26;2.42;;;2.22;;
11943;SDS011;6031;50.220;10.122;2022-09-13T13:38:56;1.95;;;1.80;;
11943;SDS011;6031;50.220;10.122;2022-09-13T13:43:59;2.03;;;1.90;;
11943;SDS011;6031;50.220;10.122;2022-09-13T13:46:28;2.28;;;1.60;;
11943;SDS011;6031;50.220;10.122;2022-09-13T13:48:55;2.15;;;1.95;;
11943;SDS011;6031;50.220;10.122;2022-09-13T13:51:41;2.05;;;1.92;;
11943;SDS011;6031;50.220;10.122;2022-09-13T13:57:30;3.60;;;2.28;;
11943;SDS011;6031;50.220;10.122;2022-09-13T14:00:14;4.30;;;2.05;;
11943;SDS011;6031;50.220;10.122;2022-09-13T14:16:01;5.22;;;2.50;;
11943;SDS011;6031;50.220;10.122;2022-09-13T14:21:33;3.67;;;2.30;;
11943;SDS011;6031;50.220;10.122;2022-09-13T14:26:36;3.17;;;2.90;;
11943;SDS011;6031;50.220;10.122;2022-09-13T14:29:06;27.70;;;17.20;;
11943;SDS011;6031;50.220;10.122;2022-09-13T14:31:33;5.43;;;3.35;;
11943;SDS011;6031;50.220;10.122;2022-09-13T14:33:59;3.28;;;2.75;;
11943;SDS011;6031;50.220;10.122;2022-09-13T14:36:25;2.70;;;2.50;;
11943;SDS011;6031;50.220;10.122;2022-09-13T14:38:58;2.50;;;2.30;;
11943;SDS011;6031;50.220;10.122;2022-09-13T14:41:35;2.03;;;1.90;;
11943;SDS011;6031;50.220;10.122;2022-09-13T14:44:21;2.22;;;2.00;;
11943;SDS011;6031;50.220;10.122;2022-09-13T14:46:50;2.60;;;2.40;;
11943;SDS011;6031;50.220;10.122;2022-09-13T14:49:38;2.67;;;2.42;;
11943;SDS011;6031;50.220;10.122;2022-09-13T14:52:08;3.55;;;2.53;;
11943;SDS011;6031;50.220;10.122;2022-09-13T14:54:50;3.25;;;1.95;;
11943;SDS011;6031;50.220;10.122;2022-09-13T14:57:21;2.33;;;2.22;;
11943;SDS011;6031;50.220;10.122;2022-09-13T15:03:00;2.67;;;2.05;;
11943;SDS011;6031;50.220;10.122;2022-09-13T15:05:30;6.47;;;2.42;;
11943;SDS011;6031;50.220;10.122;2022-09-13T15:07:56;2.08;;;1.95;;
11943;SDS011;6031;50.220;10.122;2022-09-13T15:10:28;2.65;;;2.20;;
11943;SDS011;6031;50.220;10.122;2022-09-13T15:15:24;2.90;;;2.22;;
11943;SDS011;6031;50.220;10.122;2022-09-13T15:23:32;2.20;;;2.10;;
11943;SDS011;6031;50.220;10.122;2022-09-13T15:26:08;1.83;;;1.73;;
11943;SDS011;6031;50.220;10.122;2022-09-13T15:31:24;2.95;;;2.15;;
11943;SDS011;6031;50.220;10.122;2022-09-13T15:36:35;2.65;;;1.63;;
11943;SDS011;6031;50.220;10.122;2022-09-13T15:39:03;3.08;;;1.67;;
11943;SDS011;6031;50.220;10.122;2022-09-13T15:41:49;1.80;;;1.70;;
11943;SDS011;6031;50.220;10.122;2022-09-13T15:44:25;1.73;;;1.63;;
11943;SDS011;6031;50.220;10.122;2022-09-13T15:46:53;1.50;;;1.40;;
11943;SDS011;6031;50.220;10.122;2022-09-13T15:49:28;1.43;;;1.33;;
11943;SDS011;6031;50.220;10.122;2022-09-13T15:51:59;2.00;;;1.47;;
11943;SDS011;6031;50.220;10.122;2022-09-13T15:54:30;1.90;;;1.80;;
11943;SDS011;6031;50.220;10.122;2022-09-13T15:56:57;1.87;;;1.77;;
11943;SDS011;6031;50.220;10.122;2022-09-13T15:59:23;1.37;;;1.30;;
11943;SDS011;6031;50.220;10.122;2022-09-13T16:01:49;1.33;;;1.30;;
11943;SDS011;6031;50.220;10.122;2022-09-13T16:04:16;2.77;;;1.53;;
11943;SDS011;6031;50.220;10.122;2022-09-13T16:06:42;2.37;;;1.63;;
11943;SDS011;6031;50.220;10.122;2022-09-13T16:09:18;3.00;;;1.77;;
11943;SDS011;6031;50.220;10.122;2022-09-13T16:11:46;3.17;;;1.67;;
11943;SDS011;6031;50.220;10.122;2022-09-13T16:14:12;2.23;;;1.60;;
11943;SDS011;6031;50.220;10.122;2022-09-13T16:16:39;1.60;;;1.50;;
11943;SDS011;6031;50.220;10.122;2022-09-13T16:19:05;1.60;;;1.50;;
11943;SDS011;6031;50.220;10.122;2022-09-13T16:21:30;4.67;;;2.00;;
11943;SDS011;6031;50.220;10.122;2022-09-13T16:23:56;1.77;;;1.67;;
11943;SDS011;6031;50.220;10.122;2022-09-13T16:26:22;1.87;;;1.47;;
11943;SDS011;6031;50.220;10.122;2022-09-13T16:28:47;3.57;;;1.30;;
11943;SDS011;6031;50.220;10.122;2022-09-13T16:31:13;2.33;;;2.13;;
11943;SDS011;6031;50.220;10.122;2022-09-13T16:33:40;1.87;;;1.77;;
11943;SDS011;6031;50.220;10.122;2022-09-13T16:36:07;2.57;;;1.70;;
11943;SDS011;6031;50.220;10.122;2022-09-13T16:38:35;4.23;;;2.10;;
11943;SDS011;6031;50.220;10.122;2022-09-13T16:41:03;2.17;;;1.80;;
11943;SDS011;6031;50.220;10.122;2022-09-13T16:43:29;2.30;;;1.80;;
11943;SDS011;6031;50.220;10.122;2022-09-13T16:45:55;1.93;;;1.27;;
11943;SDS011;6031;50.220;10.122;2022-09-13T16:48:20;2.60;;;2.03;;
11943;SDS011;6031;50.220;10.122;2022-09-13T16:50:46;1.60;;;1.50;;
11943;SDS011;6031;50.220;10.122;2022-09-13T16:53:11;3.33;;;1.70;;
11943;SDS011;6031;50.220;10.122;2022-09-13T16:55:37;2.10;;;1.90;;
11943;SDS011;6031;50.220;10.122;2022-09-13T16:58:02;1.73;;;1.63;;
11943;SDS011;6031;50.220;10.122;2022-09-13T17:00:28;3.07;;;2.40;;
11943;SDS011;6031;50.220;10.122;2022-09-13T17:02:54;2.03;;;1.93;;
11943;SDS011;6031;50.220;10.122;2022-09-13T17:05:20;1.90;;;1.80;;
11943;SDS011;6031;50.220;10.122;2022-09-13T17:07:47;2.43;;;2.10;;
11943;SDS011;6031;50.220;10.122;2022-09-13T17:10:12;1.90;;;1.80;;
11943;SDS011;6031;50.220;10.122;2022-09-13T17:12:38;1.87;;;1.77;;
11943;SDS011;6031;50.220;10.122;2022-09-13T17:15:03;2.73;;;2.17;;
11943;SDS011;6031;50.220;10.122;2022-09-13T17:17:30;2.53;;;2.03;;
11943;SDS011;6031;50.220;10.122;2022-09-13T17:20:00;2.53;;;2.37;;
11943;SDS011;6031;50.220;10.122;2022-09-13T17:22:27;2.73;;;2.00;;
11943;SDS011;6031;50.220;10.122;2022-09-13T17:24:52;2.77;;;2.20;;
11943;SDS011;6031;50.220;10.122;2022-09-13T17:27:18;2.00;;;1.90;;
11943;SDS011;6031;50.220;10.122;2022-09-13T17:29:43;2.20;;;2.10;;
11943;SDS011;6031;50.220;10.122;2022-09-13T17:32:09;4.37;;;2.40;;
11943;SDS011;6031;50.220;10.122;2022-09-13T17:34:34;2.10;;;2.00;;
11943;SDS011;6031;50.220;10.122;2022-09-13T17:37:00;3.80;;;2.43;;
11943;SDS011;6031;50.220;10.122;2022-09-13T17:39:27;2.23;;;2.03;;
11943;SDS011;6031;50.220;10.122;2022-09-13T17:41:53;3.43;;;2.10;;
11943;SDS011;6031;50.220;10.122;2022-09-13T17:44:19;1.80;;;1.70;;
11943;SDS011;6031;50.220;10.122;2022-09-13T17:46:44;3.53;;;2.03;;
11943;SDS011;6031;50.220;10.122;2022-09-13T17:49:10;2.17;;;2.07;;
11943;SDS011;6031;50.220;10.122;2022-09-13T17:51:36;3.37;;;1.97;;